createdAt,value
2019-05-14T00:01:36.468Z,87.58
2019-05-14T00:04:11.409Z,88.62
2019-05-14T00:06:43.750Z,89.73
2019-05-14T00:09:16.783Z,88.05
2019-05-14T00:11:51.146Z,88.23
2019-05-14T00:14:35.656Z,89.56
2019-05-14T00:16:58.153Z,88.66
2019-05-14T00:19:31.894Z,88.25
2019-05-14T00:22:04.963Z,88.96
2019-05-14T00:24:37.402Z,89.27
2019-05-14T00:27:11.430Z,89.01
2019-05-14T00:29:44.727Z,90.27
2019-05-14T00:32:17.497Z,91.39
2019-05-14T00:34:51.576Z,92.78
2019-05-14T00:37:24.254Z,91.33
2019-05-14T00:39:56.867Z,90.18
2019-05-14T00:42:31.779Z,92.87
2019-05-14T00:45:05.097Z,90.74
2019-05-14T00:47:37.460Z,91.29
2019-05-14T00:50:11.314Z,91.32
2019-05-14T00:52:46.308Z,91.37
2019-05-14T00:55:18.463Z,93.50
2019-05-14T00:57:52.134Z,94.58
2019-05-14T01:00:25.138Z,92.51
2019-05-14T01:02:57.832Z,92.18
2019-05-14T01:05:32.092Z,91.80
2019-05-14T01:08:05.120Z,94.18
2019-05-14T01:10:36.613Z,94.07
2019-05-14T01:13:08.410Z,94.20
2019-05-14T01:15:41.441Z,93.23
2019-05-14T01:18:14.004Z,96.48
2019-05-14T01:20:46.485Z,92.76
2019-05-14T01:23:18.678Z,96.00
2019-05-14T01:25:51.802Z,96.85
2019-05-14T01:28:24.171Z,94.45
2019-05-14T01:30:56.544Z,95.93
2019-05-14T01:33:28.888Z,96.70
2019-05-14T01:36:02.095Z,95.96
2019-05-14T01:38:35.014Z,96.93
2019-05-14T01:41:07.099Z,98.16
2019-05-14T01:43:41.927Z,99.42
2019-05-14T01:46:14.718Z,98.81
2019-05-14T01:48:46.802Z,98.42
2019-05-14T01:51:22.181Z,97.47
2019-05-14T01:53:53.930Z,97.25
2019-05-14T01:56:26.675Z,95.09
2019-05-14T01:59:01.651Z,96.41
2019-05-14T02:01:34.151Z,97.30
2019-05-14T02:04:06.522Z,99.06
2019-05-14T02:06:41.213Z,99.64
2019-05-14T02:09:13.530Z,100.00
2019-05-14T02:11:46.001Z,100.00
2019-05-14T02:14:18.633Z,100.00
2019-05-14T02:16:51.215Z,100.00
2019-05-14T02:19:24.639Z,100.00
2019-05-14T02:22:02.143Z,100.00
2019-05-14T02:24:35.249Z,99.05
2019-05-14T02:27:08.212Z,99.07
2019-05-14T02:29:41.617Z,100.00
2019-05-14T02:32:14.783Z,100.00
2019-05-14T02:34:49.876Z,99.35
2019-05-14T02:37:21.885Z,98.23
2019-05-14T02:39:55.138Z,98.20
2019-05-14T02:42:28.897Z,99.85
2019-05-14T02:45:01.983Z,98.96
2019-05-14T02:47:34.146Z,99.41
2019-05-14T02:50:09.848Z,100.00
2019-05-14T02:52:40.906Z,100.00
2019-05-14T02:55:13.625Z,100.00
2019-05-14T02:57:45.711Z,100.00
2019-05-14T03:00:19.424Z,99.86
2019-05-14T03:02:51.869Z,100.00
2019-05-14T03:05:24.888Z,100.00
2019-05-14T03:07:59.912Z,100.00
2019-05-14T03:10:32.473Z,100.00
2019-05-14T03:13:04.689Z,100.00
2019-05-14T03:15:39.134Z,100.00
2019-05-14T03:18:19.550Z,100.00
2019-05-14T03:20:50.645Z,99.76
2019-05-14T03:23:23.535Z,100.00
2019-05-14T03:26:00.409Z,100.00
2019-05-14T03:28:33.302Z,100.00
2019-05-14T03:31:05.518Z,100.00
2019-05-14T03:33:43.759Z,100.00
2019-05-14T03:36:17.850Z,100.00
2019-05-14T03:38:50.215Z,100.00
2019-05-14T03:41:22.281Z,100.00
2019-05-14T03:43:54.975Z,100.00
2019-05-14T03:46:44.711Z,100.00
2019-05-14T03:49:01.687Z,100.00
2019-05-14T03:51:33.748Z,100.00
2019-05-14T03:54:11.350Z,100.00
2019-05-14T03:56:40.663Z,100.00
2019-05-14T03:59:12.773Z,100.00
2019-05-14T04:01:46.092Z,98.04
2019-05-14T04:04:19.714Z,99.80
2019-05-14T04:06:59.672Z,100.00
2019-05-14T04:09:32.001Z,100.00
2019-05-14T04:12:10.036Z,100.00
2019-05-14T04:14:46.291Z,100.00
2019-05-14T04:17:32.104Z,100.00
2019-05-14T04:20:00.703Z,100.00
2019-05-14T04:22:39.324Z,100.00
2019-05-14T04:25:12.161Z,100.00
2019-05-14T04:27:49.400Z,100.00
2019-05-14T04:30:24.279Z,100.00
2019-05-14T04:33:00.900Z,99.71
2019-05-14T04:35:35.456Z,98.13
2019-05-14T04:38:09.589Z,100.00
2019-05-14T04:40:42.574Z,99.08
2019-05-14T04:43:19.193Z,99.71
2019-05-14T04:45:51.618Z,99.43
2019-05-14T04:48:35.820Z,100.00
2019-05-14T04:51:00.529Z,99.19
2019-05-14T04:53:33.691Z,97.62
2019-05-14T04:56:09.852Z,96.31
2019-05-14T04:58:41.817Z,97.85
2019-05-14T05:01:14.995Z,95.67
2019-05-14T05:03:45.779Z,95.58
2019-05-14T05:06:19.182Z,96.12
2019-05-14T05:08:52.381Z,94.99
2019-05-14T05:11:25.060Z,93.68
2019-05-14T05:13:59.466Z,92.89
2019-05-14T05:16:32.399Z,90.90
2019-05-14T05:19:04.834Z,90.21
2019-05-14T05:21:38.774Z,89.50
2019-05-14T05:24:11.581Z,88.21
2019-05-14T05:26:44.534Z,88.04
2019-05-14T05:29:18.577Z,86.81
2019-05-14T05:31:51.625Z,86.95
2019-05-14T05:34:24.069Z,86.39
2019-05-14T05:36:58.983Z,86.87
2019-05-14T05:39:30.623Z,85.40
2019-05-14T05:42:04.170Z,84.27
2019-05-14T05:44:35.060Z,83.21
2019-05-14T05:47:09.154Z,82.37
2019-05-14T05:49:42.570Z,80.98
2019-05-14T05:52:15.253Z,80.88
2019-05-14T05:54:49.045Z,80.99
2019-05-14T05:57:22.827Z,80.40
2019-05-14T05:59:58.879Z,80.84
2019-05-14T06:02:32.131Z,80.27
2019-05-14T06:05:08.075Z,79.15
2019-05-14T06:07:41.125Z,78.68
2019-05-14T06:10:13.282Z,77.36
2019-05-14T06:12:45.944Z,76.28
2019-05-14T06:15:19.326Z,75.40
2019-05-14T06:17:52.625Z,75.88
2019-05-14T06:20:25.177Z,74.88
2019-05-14T06:22:59.653Z,74.54
2019-05-14T06:25:33.251Z,74.53
2019-05-14T06:28:05.689Z,73.83
2019-05-14T06:30:40.846Z,72.99
2019-05-14T06:33:13.368Z,71.62
2019-05-14T06:35:45.379Z,71.30
2019-05-14T06:38:18.513Z,70.22
2019-05-14T06:40:51.356Z,69.92
2019-05-14T06:43:24.316Z,68.71
2019-05-14T06:45:59.196Z,67.70
2019-05-14T06:48:34.737Z,67.18
2019-05-14T06:51:08.865Z,67.02
2019-05-14T06:53:42.118Z,66.35
2019-05-14T06:56:17.883Z,64.93
2019-05-14T06:58:49.742Z,64.64
2019-05-14T07:01:22.089Z,64.01
2019-05-14T07:03:54.469Z,63.14
2019-05-14T07:06:29.081Z,62.68
2019-05-14T07:09:01.523Z,61.96
2019-05-14T07:11:33.527Z,61.89
2019-05-14T07:14:10.928Z,60.95
2019-05-14T07:16:42.121Z,60.99
2019-05-14T07:19:15.917Z,60.32
2019-05-14T07:21:50.188Z,60.49
2019-05-14T07:24:21.816Z,58.86
2019-05-14T07:26:53.807Z,58.82
2019-05-14T07:29:25.881Z,58.29
2019-05-14T07:31:59.142Z,56.98
2019-05-14T07:34:31.341Z,56.78
2019-05-14T07:37:04.005Z,57.34
2019-05-14T07:39:38.547Z,55.47
2019-05-14T07:42:11.373Z,55.52
2019-05-14T07:44:44.415Z,54.82
2019-05-14T07:47:15.545Z,55.46
2019-05-14T07:49:49.026Z,54.28
2019-05-14T07:52:21.545Z,54.60
2019-05-14T07:54:53.752Z,53.79
2019-05-14T07:57:28.292Z,54.28
2019-05-14T08:00:00.888Z,53.31
2019-05-14T08:02:33.555Z,52.27
2019-05-14T08:05:08.747Z,51.69
2019-05-14T08:07:41.118Z,50.68
2019-05-14T08:10:14.761Z,49.92
2019-05-14T08:12:48.517Z,49.19
2019-05-14T08:15:22.510Z,49.90
2019-05-14T08:17:55.021Z,48.60
2019-05-14T08:20:28.638Z,47.92
2019-05-14T08:23:02.021Z,48.85
2019-05-14T08:25:34.120Z,47.89
2019-05-14T08:28:08.140Z,48.83
2019-05-14T08:30:40.577Z,48.26
2019-05-14T08:33:12.652Z,49.00
2019-05-14T08:35:44.695Z,48.86
2019-05-14T08:38:18.465Z,49.20
2019-05-14T08:40:51.998Z,46.90
2019-05-14T08:43:25.119Z,46.14
2019-05-14T08:45:58.774Z,44.85
2019-05-14T08:48:31.328Z,45.84
2019-05-14T08:51:05.729Z,44.14
2019-05-14T08:53:38.717Z,44.17
2019-05-14T08:56:12.334Z,45.31
2019-05-14T08:58:45.190Z,45.03
2019-05-14T09:01:15.961Z,46.08
2019-05-14T09:03:49.684Z,45.58
2019-05-14T09:06:23.700Z,45.54
2019-05-14T09:08:59.205Z,45.14
2019-05-14T09:11:35.389Z,44.75
2019-05-14T09:14:05.134Z,44.27
2019-05-14T09:16:46.187Z,43.50
2019-05-14T09:19:11.612Z,43.11
2019-05-14T09:21:43.919Z,43.50
2019-05-14T09:24:18.208Z,43.19
2019-05-14T09:26:50.817Z,42.77
2019-05-14T09:29:25.870Z,43.11
2019-05-14T09:31:58.753Z,42.59
2019-05-14T09:34:29.734Z,42.59
2019-05-14T09:37:02.378Z,43.13
2019-05-14T09:39:33.722Z,42.98
2019-05-14T09:42:08.213Z,43.81
2019-05-14T09:44:41.291Z,43.75
2019-05-14T09:47:14.353Z,44.35
2019-05-14T09:49:49.076Z,43.82
2019-05-14T09:52:21.702Z,43.89
2019-05-14T09:54:54.451Z,44.33
2019-05-14T09:57:25.213Z,44.88
2019-05-14T09:59:58.562Z,45.37
2019-05-14T10:02:31.171Z,44.28
2019-05-14T10:05:03.477Z,44.16
2019-05-14T10:07:39.094Z,44.14
2019-05-14T10:10:10.872Z,44.61
2019-05-14T10:12:52.416Z,45.98
2019-05-14T10:15:18.269Z,44.63
2019-05-14T10:17:50.642Z,44.23
2019-05-14T10:20:36.751Z,44.93
2019-05-14T10:22:58.570Z,44.40
2019-05-14T10:25:31.625Z,43.85
2019-05-14T10:28:04.222Z,44.23
2019-05-14T10:30:36.897Z,44.15
2019-05-14T10:33:14.747Z,44.52
2019-05-14T10:35:48.614Z,43.91
2019-05-14T10:38:20.811Z,43.76
2019-05-14T10:40:53.336Z,44.05
2019-05-14T10:43:25.406Z,44.73
2019-05-14T10:45:58.196Z,44.63
2019-05-14T10:48:29.332Z,43.50
2019-05-14T10:51:03.618Z,42.78
2019-05-14T10:53:35.627Z,42.81
2019-05-14T10:56:09.671Z,42.88
2019-05-14T10:58:42.307Z,41.97
2019-05-14T11:01:14.359Z,41.64
2019-05-14T11:03:48.410Z,41.31
2019-05-14T11:06:20.603Z,41.63
2019-05-14T11:08:52.744Z,41.54
2019-05-14T11:11:25.192Z,43.35
2019-05-14T11:13:57.606Z,43.24
2019-05-14T11:16:29.994Z,43.63
2019-05-14T11:19:02.388Z,44.00
2019-05-14T11:21:34.980Z,43.39
2019-05-14T11:24:09.440Z,42.51
2019-05-14T11:26:41.216Z,42.00
2019-05-14T11:29:14.151Z,42.95
2019-05-14T11:31:48.376Z,41.50
2019-05-14T11:34:20.303Z,40.60
2019-05-14T11:36:51.078Z,40.25
2019-05-14T11:39:23.612Z,40.08
2019-05-14T11:41:54.968Z,40.08
2019-05-14T11:44:28.565Z,39.56
2019-05-14T11:47:02.546Z,39.11
2019-05-14T11:49:34.176Z,39.18
2019-05-14T11:52:11.486Z,39.58
2019-05-14T11:54:41.819Z,40.88
2019-05-14T11:57:14.212Z,40.56
2019-05-14T11:59:45.396Z,42.02
2019-05-14T12:02:18.933Z,41.52
2019-05-14T12:04:52.488Z,41.07
2019-05-14T12:07:24.630Z,39.43
2019-05-14T12:09:56.904Z,40.18
2019-05-14T12:12:28.961Z,40.40
2019-05-14T12:15:00.961Z,39.59
2019-05-14T12:17:33.303Z,40.04
2019-05-14T12:20:06.511Z,39.45
2019-05-14T12:22:39.488Z,40.58
2019-05-14T12:25:12.270Z,39.99
2019-05-14T12:27:45.180Z,40.02
2019-05-14T12:30:19.640Z,38.79
2019-05-14T12:32:52.308Z,38.41
2019-05-14T12:35:23.501Z,40.20
2019-05-14T12:37:55.207Z,40.44
2019-05-14T12:40:28.947Z,40.38
2019-05-14T12:43:01.910Z,39.60
2019-05-14T12:45:34.287Z,39.93
2019-05-14T12:48:09.145Z,40.70
2019-05-14T12:50:40.499Z,40.63
2019-05-14T12:53:14.419Z,40.27
2019-05-14T12:55:48.730Z,40.33
2019-05-14T13:01:25.944Z,42.30
2019-05-14T13:03:59.311Z,41.69
2019-05-14T13:06:32.094Z,41.90
2019-05-14T13:09:05.266Z,40.56
2019-05-14T13:11:41.491Z,42.06
2019-05-14T13:14:12.796Z,41.85
2019-05-14T13:16:45.488Z,42.72
2019-05-14T13:19:18.980Z,42.80
2019-05-14T13:22:08.713Z,41.87
2019-05-14T13:24:25.829Z,42.19
2019-05-14T13:27:00.009Z,41.99
2019-05-14T13:29:32.463Z,41.99
2019-05-14T13:32:04.868Z,40.12
2019-05-14T13:34:39.534Z,40.59
2019-05-14T13:37:11.540Z,40.46
2019-05-14T13:39:42.667Z,39.54
2019-05-14T13:42:14.957Z,39.88
2019-05-14T13:44:47.299Z,40.82
2019-05-14T13:47:19.690Z,41.14
2019-05-14T13:49:51.802Z,41.83
2019-05-14T13:52:24.728Z,41.53
2019-05-14T13:54:56.544Z,42.50
2019-05-14T13:57:29.390Z,42.64
2019-05-14T14:00:01.548Z,43.28
2019-05-14T14:02:34.484Z,45.28
2019-05-14T14:05:08.699Z,47.77
2019-05-14T14:07:44.597Z,50.20
2019-05-14T14:10:15.588Z,51.12
2019-05-14T14:12:49.806Z,48.79
2019-05-14T14:15:22.030Z,47.82
2019-05-14T14:17:55.006Z,46.50
2019-05-14T14:20:29.135Z,46.91
2019-05-14T14:23:17.624Z,46.18
2019-05-14T14:25:35.274Z,44.63
2019-05-14T14:28:09.944Z,43.45
2019-05-14T14:30:41.815Z,42.75
2019-05-14T14:33:14.186Z,42.99
2019-05-14T14:35:48.546Z,41.65
2019-05-14T14:38:20.877Z,42.08
2019-05-14T14:40:53.237Z,43.39
2019-05-14T14:43:25.297Z,45.10
2019-05-14T14:45:59.339Z,47.72
2019-05-14T14:48:32.264Z,50.20
2019-05-14T14:51:04.654Z,50.42
2019-05-14T14:53:52.498Z,49.83
2019-05-14T14:56:12.734Z,49.07
2019-05-14T14:58:44.671Z,48.54
2019-05-14T15:01:19.366Z,48.02
2019-05-14T15:03:52.159Z,46.56
2019-05-14T15:06:25.006Z,45.24
2019-05-14T15:08:58.905Z,44.90
2019-05-14T15:11:30.580Z,44.55
2019-05-14T15:14:04.484Z,42.96
2019-05-14T15:16:38.842Z,43.29
2019-05-14T15:19:10.113Z,44.34
2019-05-14T15:21:42.310Z,43.42
2019-05-14T15:24:16.103Z,42.53
2019-05-14T15:26:48.959Z,41.76
2019-05-14T15:29:21.736Z,41.94
2019-05-14T15:31:53.143Z,42.14
2019-05-14T15:34:25.254Z,41.83
2019-05-14T15:36:59.769Z,41.84
2019-05-14T15:39:32.525Z,42.88
2019-05-14T15:42:06.574Z,43.03
2019-05-14T15:44:48.781Z,43.25
2019-05-14T15:47:13.052Z,43.80
2019-05-14T15:49:48.908Z,43.63
2019-05-14T15:52:20.688Z,42.48
2019-05-14T15:54:53.787Z,42.11
2019-05-14T15:57:28.619Z,42.40
2019-05-14T16:00:01.060Z,43.03
2019-05-14T16:02:33.861Z,43.55
2019-05-14T16:05:05.059Z,43.65
2019-05-14T16:07:39.152Z,43.75
2019-05-14T16:10:13.138Z,43.55
2019-05-14T16:12:45.926Z,43.49
2019-05-14T16:15:18.826Z,44.37
2019-05-14T16:18:06.386Z,44.68
2019-05-14T16:20:25.883Z,44.50
2019-05-14T16:22:58.933Z,44.66
2019-05-14T16:25:31.405Z,44.98
2019-05-14T16:28:04.223Z,45.34
2019-05-14T16:30:39.689Z,45.97
2019-05-14T16:33:11.215Z,46.00
2019-05-14T16:35:43.460Z,46.97
2019-05-14T16:38:16.467Z,46.22
2019-05-14T16:40:48.951Z,45.89
2019-05-14T16:43:21.752Z,45.94
2019-05-14T16:45:54.182Z,48.23
2019-05-14T16:48:28.969Z,49.94
2019-05-14T16:51:01.264Z,51.41
2019-05-14T16:53:33.781Z,53.67
2019-05-14T16:56:08.162Z,56.83
2019-05-14T16:58:42.187Z,58.86
2019-05-14T17:01:18.982Z,59.64
2019-05-14T17:03:49.800Z,57.61
2019-05-14T17:06:22.950Z,56.35
2019-05-14T17:08:56.119Z,55.78
2019-05-14T17:11:28.449Z,55.01
2019-05-14T17:14:01.137Z,54.54
2019-05-14T17:16:33.544Z,55.15
2019-05-14T17:19:09.131Z,53.61
2019-05-14T17:21:41.368Z,54.34
2019-05-14T17:24:14.009Z,54.41
2019-05-14T17:26:48.826Z,54.22
2019-05-14T17:29:21.239Z,54.37
2019-05-14T17:31:53.948Z,54.38
2019-05-14T17:34:29.116Z,56.15
2019-05-14T17:37:00.849Z,56.88
2019-05-14T17:39:33.836Z,58.03
2019-05-14T17:42:11.424Z,59.17
2019-05-14T17:44:41.739Z,59.30
2019-05-14T17:47:12.547Z,59.71
2019-05-14T17:49:45.591Z,59.16
2019-05-14T17:52:21.790Z,59.15
2019-05-14T17:54:53.022Z,58.98
2019-05-14T17:57:26.166Z,58.84
2019-05-14T18:00:02.587Z,58.23
2019-05-14T18:02:36.347Z,58.07
2019-05-14T18:05:09.749Z,57.86
2019-05-14T18:07:42.607Z,58.38
2019-05-14T18:10:15.645Z,57.77
2019-05-14T18:12:49.349Z,58.09
2019-05-14T18:15:24.885Z,58.24
2019-05-14T18:17:58.847Z,58.67
2019-05-14T18:20:32.083Z,59.34
2019-05-14T18:23:11.406Z,60.21
2019-05-14T18:25:41.567Z,60.00
2019-05-14T18:29:21.165Z,60.20
2019-05-14T18:31:33.619Z,60.89
2019-05-14T18:34:07.396Z,60.34
2019-05-14T18:36:41.941Z,60.74
2019-05-14T18:39:18.355Z,61.13
2019-05-14T18:41:52.145Z,61.48
2019-05-14T18:44:28.265Z,61.79
2019-05-14T18:47:00.492Z,62.28
2019-05-14T18:49:32.955Z,62.82
2019-05-14T18:52:05.771Z,63.25
2019-05-14T18:54:41.058Z,63.45
2019-05-14T18:57:14.587Z,63.94
2019-05-14T18:59:49.447Z,64.25
2019-05-14T19:02:22.812Z,64.44
2019-05-14T19:04:54.664Z,63.67
2019-05-14T19:07:28.784Z,65.32
2019-05-14T19:10:01.808Z,65.50
2019-05-14T19:12:34.218Z,65.80
2019-05-14T19:15:10.328Z,66.58
2019-05-14T19:17:43.068Z,66.59
2019-05-14T19:20:19.055Z,67.38
2019-05-14T19:22:51.200Z,67.44
2019-05-14T19:25:23.824Z,68.49
2019-05-14T19:27:58.171Z,68.28
2019-05-14T19:30:30.686Z,67.79
2019-05-14T19:33:02.845Z,68.69
2019-05-14T19:35:35.905Z,68.41
2019-05-14T19:38:08.892Z,68.92
2019-05-14T19:40:40.972Z,68.87
2019-05-14T19:43:13.049Z,69.50
2019-05-14T19:45:48.373Z,69.89
2019-05-14T19:48:20.861Z,69.47
2019-05-14T19:50:54.379Z,71.14
2019-05-14T19:53:28.435Z,70.47
2019-05-14T19:56:05.379Z,72.30
2019-05-14T19:58:39.266Z,70.63
2019-05-14T20:01:12.251Z,69.51
2019-05-14T20:03:44.389Z,72.07
2019-05-14T20:06:18.734Z,72.68
2019-05-14T20:08:51.821Z,72.74
2019-05-14T20:11:25.936Z,72.58
2019-05-14T20:13:59.944Z,73.22
2019-05-14T20:16:32.342Z,73.65
2019-05-14T20:19:04.537Z,74.77
2019-05-14T20:21:39.022Z,74.37
2019-05-14T20:24:12.151Z,76.14
2019-05-14T20:26:46.399Z,78.13
2019-05-14T20:29:19.679Z,76.36
2019-05-14T20:31:52.148Z,78.48
2019-05-14T20:34:25.170Z,79.79
2019-05-14T20:36:58.812Z,77.81
2019-05-14T20:39:33.589Z,77.56
2019-05-14T20:42:06.255Z,79.46
2019-05-14T20:44:38.741Z,80.82
2019-05-14T20:47:11.631Z,80.18
2019-05-14T20:49:47.428Z,81.15
2019-05-14T20:52:20.664Z,80.03
2019-05-14T20:54:53.248Z,82.21
2019-05-14T20:57:31.257Z,80.96
2019-05-14T21:00:02.283Z,81.87
2019-05-14T21:02:34.736Z,81.60
2019-05-14T21:05:13.549Z,82.26
2019-05-14T21:07:42.662Z,82.59
2019-05-14T21:10:14.961Z,80.66
2019-05-14T21:12:48.891Z,82.05
2019-05-14T21:15:21.587Z,82.04
2019-05-14T21:17:54.253Z,83.77
2019-05-14T21:20:28.258Z,83.21
2019-05-14T21:23:00.368Z,81.43
2019-05-14T21:25:32.650Z,82.97
2019-05-14T21:28:05.023Z,84.87
2019-05-14T21:30:38.822Z,86.33
2019-05-14T21:33:11.371Z,86.90
2019-05-14T21:35:44.258Z,86.26
2019-05-14T21:38:19.162Z,86.54
2019-05-14T21:40:51.359Z,84.24
2019-05-14T21:43:24.190Z,86.26
2019-05-14T21:45:58.664Z,86.46
2019-05-14T21:48:31.210Z,85.77
2019-05-14T21:51:04.001Z,87.50
2019-05-14T21:53:40.809Z,86.51
2019-05-14T21:56:12.380Z,85.70
2019-05-14T21:58:45.296Z,86.09
2019-05-14T22:01:18.889Z,87.38
2019-05-14T22:03:52.426Z,86.42
2019-05-14T22:06:23.573Z,86.27
2019-05-14T22:08:55.242Z,87.50
2019-05-14T22:11:28.585Z,86.90
2019-05-14T22:14:10.885Z,87.27
2019-05-14T22:16:42.981Z,88.02
2019-05-14T22:19:15.102Z,87.86
2019-05-14T22:21:49.119Z,89.36
2019-05-14T22:24:23.372Z,88.90
2019-05-14T22:26:58.213Z,88.00
2019-05-14T22:29:31.040Z,89.62
2019-05-14T22:32:08.199Z,89.17
2019-05-14T22:34:42.909Z,90.76
2019-05-14T22:37:19.902Z,91.77
2019-05-14T22:39:51.224Z,92.56
2019-05-14T22:42:23.641Z,90.76
2019-05-14T22:44:58.308Z,90.01
2019-05-14T22:47:31.185Z,91.16
2019-05-14T22:50:04.138Z,90.54
2019-05-14T22:52:38.596Z,90.49
2019-05-14T22:55:11.966Z,92.70
2019-05-14T22:57:44.314Z,93.49
2019-05-14T23:00:20.935Z,92.32
2019-05-14T23:02:55.700Z,93.00
2019-05-14T23:05:28.958Z,91.46
2019-05-14T23:08:00.400Z,92.25
2019-05-14T23:10:34.447Z,93.21
2019-05-14T23:13:09.382Z,93.16
2019-05-14T23:15:42.282Z,92.20
2019-05-14T23:18:14.591Z,93.96
2019-05-14T23:20:49.218Z,94.14
2019-05-14T23:23:23.311Z,94.59
2019-05-14T23:25:55.851Z,95.17
2019-05-14T23:28:41.421Z,93.31
2019-05-14T23:31:03.709Z,92.66
2019-05-14T23:33:35.007Z,91.77
2019-05-14T23:36:08.822Z,91.82
2019-05-14T23:38:42.220Z,93.66
2019-05-14T23:41:14.006Z,94.92
2019-05-14T23:43:47.025Z,93.76
2019-05-14T23:46:19.436Z,97.10
2019-05-14T23:48:52.473Z,96.69
2019-05-14T23:51:25.338Z,94.21
2019-05-14T23:53:58.243Z,95.52
2019-05-14T23:56:30.561Z,98.20
2019-05-14T23:59:02.853Z,95.06
